sensor_id;sensor_type;location;lat;lon;timestamp;pressure;altitude;pressure_sealevel;temperature;humidity
23677;BME280;31493;49.058;12.190;2024-01-25T00:01:35;97015.22;;;5.81;100.00
23677;BME280;31493;49.058;12.190;2024-01-25T00:04:02;97013.56;;;5.80;100.00
23677;BME280;31493;49.058;12.190;2024-01-25T00:06:29;97012.72;;;5.80;100.00
23677;BME280;31493;49.058;12.190;2024-01-25T00:08:56;97025.13;;;5.92;100.00
23677;BME280;31493;49.058;12.190;2024-01-25T00:11:24;97015.44;;;5.77;100.00
23677;BME280;31493;49.058;12.190;2024-01-25T00:13:51;97025.50;;;5.83;100.00
23677;BME280;31493;49.058;12.190;2024-01-25T00:16:18;97015.78;;;5.89;100.00
23677;BME280;31493;49.058;12.190;2024-01-25T00:18:45;97014.47;;;5.79;100.00
23677;BME280;31493;49.058;12.190;2024-01-25T00:21:12;97028.91;;;5.83;100.00
23677;BME280;31493;49.058;12.190;2024-01-25T00:23:39;97020.47;;;6.02;100.00
23677;BME280;31493;49.058;12.190;2024-01-25T00:26:06;97015.19;;;5.83;100.00
23677;BME280;31493;49.058;12.190;2024-01-25T00:28:35;97017.47;;;5.90;100.00
23677;BME280;31493;49.058;12.190;2024-01-25T00:31:02;97004.66;;;5.89;100.00
23677;BME280;31493;49.058;12.190;2024-01-25T00:33:29;97004.00;;;5.84;100.00
23677;BME280;31493;49.058;12.190;2024-01-25T00:35:56;97001.53;;;5.81;100.00
23677;BME280;31493;49.058;12.190;2024-01-25T00:38:24;97008.59;;;5.97;100.00
23677;BME280;31493;49.058;12.190;2024-01-25T00:40:53;97002.31;;;5.83;100.00
23677;BME280;31493;49.058;12.190;2024-01-25T00:43:20;97008.91;;;5.90;100.00
23677;BME280;31493;49.058;12.190;2024-01-25T00:45:49;97009.91;;;5.86;100.00
23677;BME280;31493;49.058;12.190;2024-01-25T00:48:17;97003.38;;;5.77;100.00
23677;BME280;31493;49.058;12.190;2024-01-25T00:50:45;97000.13;;;5.95;100.00
23677;BME280;31493;49.058;12.190;2024-01-25T00:53:12;97008.03;;;6.13;100.00
23677;BME280;31493;49.058;12.190;2024-01-25T00:55:40;96998.25;;;5.99;100.00
23677;BME280;31493;49.058;12.190;2024-01-25T00:58:08;96998.72;;;5.87;100.00
23677;BME280;31493;49.058;12.190;2024-01-25T01:00:36;97018.97;;;5.96;100.00
23677;BME280;31493;49.058;12.190;2024-01-25T01:03:05;96998.13;;;6.02;100.00
23677;BME280;31493;49.058;12.190;2024-01-25T01:05:33;96996.75;;;5.93;100.00
23677;BME280;31493;49.058;12.190;2024-01-25T01:08:01;96993.91;;;6.01;100.00
23677;BME280;31493;49.058;12.190;2024-01-25T01:10:28;96982.34;;;5.89;100.00
23677;BME280;31493;49.058;12.190;2024-01-25T01:12:55;96992.50;;;5.92;100.00
23677;BME280;31493;49.058;12.190;2024-01-25T01:15:22;96992.69;;;5.88;100.00
23677;BME280;31493;49.058;12.190;2024-01-25T01:17:49;96991.00;;;5.87;100.00
23677;BME280;31493;49.058;12.190;2024-01-25T01:20:17;97004.53;;;5.92;100.00
23677;BME280;31493;49.058;12.190;2024-01-25T01:22:44;96986.50;;;5.92;100.00
23677;BME280;31493;49.058;12.190;2024-01-25T01:25:11;96985.22;;;5.82;100.00
23677;BME280;31493;49.058;12.190;2024-01-25T01:27:38;96992.78;;;5.85;100.00
23677;BME280;31493;49.058;12.190;2024-01-25T01:30:07;97000.44;;;5.86;100.00
23677;BME280;31493;49.058;12.190;2024-01-25T01:32:35;96991.34;;;5.78;100.00
23677;BME280;31493;49.058;12.190;2024-01-25T01:35:02;96997.44;;;5.75;100.00
23677;BME280;31493;49.058;12.190;2024-01-25T01:37:30;96984.16;;;5.86;100.00
23677;BME280;31493;49.058;12.190;2024-01-25T01:39:57;96978.28;;;5.60;100.00
23677;BME280;31493;49.058;12.190;2024-01-25T01:42:26;96971.53;;;5.80;100.00
23677;BME280;31493;49.058;12.190;2024-01-25T01:44:53;96972.13;;;5.64;100.00
23677;BME280;31493;49.058;12.190;2024-01-25T01:47:20;96954.66;;;5.72;100.00
23677;BME280;31493;49.058;12.190;2024-01-25T01:49:48;96962.97;;;5.57;100.00
23677;BME280;31493;49.058;12.190;2024-01-25T01:52:15;96960.41;;;5.79;100.00
23677;BME280;31493;49.058;12.190;2024-01-25T01:54:45;96963.63;;;5.62;100.00
23677;BME280;31493;49.058;12.190;2024-01-25T01:57:13;96955.56;;;5.71;100.00
23677;BME280;31493;49.058;12.190;2024-01-25T01:59:40;96966.81;;;5.91;100.00
23677;BME280;31493;49.058;12.190;2024-01-25T02:02:08;96971.94;;;5.69;100.00
23677;BME280;31493;49.058;12.190;2024-01-25T02:04:35;96979.63;;;5.70;100.00
23677;BME280;31493;49.058;12.190;2024-01-25T02:07:02;96963.53;;;5.65;100.00
23677;BME280;31493;49.058;12.190;2024-01-25T02:09:29;96962.75;;;5.63;100.00
23677;BME280;31493;49.058;12.190;2024-01-25T02:12:01;96969.56;;;5.64;100.00
23677;BME280;31493;49.058;12.190;2024-01-25T02:14:30;96969.22;;;5.50;100.00
23677;BME280;31493;49.058;12.190;2024-01-25T02:16:57;96974.03;;;5.81;100.00
23677;BME280;31493;49.058;12.190;2024-01-25T02:19:24;96972.31;;;5.60;100.00
23677;BME280;31493;49.058;12.190;2024-01-25T02:21:53;96967.91;;;5.63;100.00
23677;BME280;31493;49.058;12.190;2024-01-25T02:24:22;96975.09;;;5.77;100.00
23677;BME280;31493;49.058;12.190;2024-01-25T02:26:49;96964.88;;;5.74;100.00
23677;BME280;31493;49.058;12.190;2024-01-25T02:29:16;96961.94;;;5.61;100.00
23677;BME280;31493;49.058;12.190;2024-01-25T02:31:43;96963.94;;;5.77;100.00
23677;BME280;31493;49.058;12.190;2024-01-25T02:34:10;96968.59;;;5.67;100.00
23677;BME280;31493;49.058;12.190;2024-01-25T02:36:37;96974.09;;;5.58;100.00
23677;BME280;31493;49.058;12.190;2024-01-25T02:39:04;96963.13;;;5.76;100.00
23677;BME280;31493;49.058;12.190;2024-01-25T02:41:32;96954.50;;;5.77;100.00
23677;BME280;31493;49.058;12.190;2024-01-25T02:44:00;96974.28;;;5.75;100.00
23677;BME280;31493;49.058;12.190;2024-01-25T02:46:27;96971.00;;;5.71;100.00
23677;BME280;31493;49.058;12.190;2024-01-25T02:48:54;96984.47;;;5.78;100.00
23677;BME280;31493;49.058;12.190;2024-01-25T02:51:21;96985.06;;;5.85;100.00
23677;BME280;31493;49.058;12.190;2024-01-25T02:53:48;96981.41;;;5.68;100.00
23677;BME280;31493;49.058;12.190;2024-01-25T02:56:15;96975.97;;;5.76;100.00
23677;BME280;31493;49.058;12.190;2024-01-25T02:58:44;96975.25;;;5.72;100.00
23677;BME280;31493;49.058;12.190;2024-01-25T03:01:11;96976.91;;;5.73;100.00
23677;BME280;31493;49.058;12.190;2024-01-25T03:03:38;96967.47;;;5.74;100.00
23677;BME280;31493;49.058;12.190;2024-01-25T03:06:05;96976.47;;;5.62;100.00
23677;BME280;31493;49.058;12.190;2024-01-25T03:08:33;96973.34;;;5.78;100.00
23677;BME280;31493;49.058;12.190;2024-01-25T03:11:00;96972.34;;;5.82;100.00
23677;BME280;31493;49.058;12.190;2024-01-25T03:13:29;96960.03;;;5.66;100.00
23677;BME280;31493;49.058;12.190;2024-01-25T03:15:57;96968.31;;;5.74;100.00
23677;BME280;31493;49.058;12.190;2024-01-25T03:18:24;96967.28;;;5.79;100.00
23677;BME280;31493;49.058;12.190;2024-01-25T03:20:51;96970.88;;;5.74;100.00
23677;BME280;31493;49.058;12.190;2024-01-25T03:23:18;96961.47;;;5.73;100.00
23677;BME280;31493;49.058;12.190;2024-01-25T03:25:45;96968.91;;;5.59;100.00
23677;BME280;31493;49.058;12.190;2024-01-25T03:28:12;96971.06;;;5.70;100.00
23677;BME280;31493;49.058;12.190;2024-01-25T03:30:42;96970.03;;;5.74;100.00
23677;BME280;31493;49.058;12.190;2024-01-25T03:33:10;96977.00;;;5.72;100.00
23677;BME280;31493;49.058;12.190;2024-01-25T03:35:37;96987.66;;;5.85;100.00
23677;BME280;31493;49.058;12.190;2024-01-25T03:38:04;96983.47;;;5.82;100.00
23677;BME280;31493;49.058;12.190;2024-01-25T03:40:31;96993.19;;;5.74;100.00
23677;BME280;31493;49.058;12.190;2024-01-25T03:42:58;96991.97;;;5.84;100.00
23677;BME280;31493;49.058;12.190;2024-01-25T03:45:25;96990.34;;;5.82;100.00
23677;BME280;31493;49.058;12.190;2024-01-25T03:47:53;96995.16;;;5.67;100.00
23677;BME280;31493;49.058;12.190;2024-01-25T03:50:21;96985.53;;;5.72;100.00
23677;BME280;31493;49.058;12.190;2024-01-25T03:52:48;96990.16;;;5.64;100.00
23677;BME280;31493;49.058;12.190;2024-01-25T03:55:15;97002.06;;;5.67;100.00
23677;BME280;31493;49.058;12.190;2024-01-25T03:57:44;97004.16;;;5.79;100.00
23677;BME280;31493;49.058;12.190;2024-01-25T04:00:12;96986.69;;;5.65;100.00
23677;BME280;31493;49.058;12.190;2024-01-25T04:02:39;96994.50;;;5.62;100.00
23677;BME280;31493;49.058;12.190;2024-01-25T04:05:07;96992.88;;;5.60;100.00
23677;BME280;31493;49.058;12.190;2024-01-25T04:07:35;96992.66;;;5.66;100.00
23677;BME280;31493;49.058;12.190;2024-01-25T04:10:02;96978.41;;;5.57;100.00
23677;BME280;31493;49.058;12.190;2024-01-25T04:12:30;96987.19;;;5.52;100.00
23677;BME280;31493;49.058;12.190;2024-01-25T04:14:57;96984.34;;;5.59;100.00
23677;BME280;31493;49.058;12.190;2024-01-25T04:17:24;96984.09;;;5.65;100.00
23677;BME280;31493;49.058;12.190;2024-01-25T04:19:51;96988.19;;;5.71;100.00
23677;BME280;31493;49.058;12.190;2024-01-25T04:22:18;96975.84;;;5.57;100.00
23677;BME280;31493;49.058;12.190;2024-01-25T04:24:46;96976.00;;;5.53;100.00
23677;BME280;31493;49.058;12.190;2024-01-25T04:27:15;96980.19;;;5.55;100.00
23677;BME280;31493;49.058;12.190;2024-01-25T04:29:43;96981.00;;;5.57;100.00
23677;BME280;31493;49.058;12.190;2024-01-25T04:32:10;96991.53;;;5.50;100.00
23677;BME280;31493;49.058;12.190;2024-01-25T04:34:37;96991.97;;;5.39;100.00
23677;BME280;31493;49.058;12.190;2024-01-25T04:37:04;96994.78;;;5.55;100.00
23677;BME280;31493;49.058;12.190;2024-01-25T04:39:31;96978.06;;;5.43;100.00
23677;BME280;31493;49.058;12.190;2024-01-25T04:41:59;96986.06;;;5.59;100.00
23677;BME280;31493;49.058;12.190;2024-01-25T04:44:26;96993.63;;;5.40;100.00
23677;BME280;31493;49.058;12.190;2024-01-25T04:46:53;96979.72;;;5.45;100.00
23677;BME280;31493;49.058;12.190;2024-01-25T04:49:20;96992.06;;;5.36;100.00
23677;BME280;31493;49.058;12.190;2024-01-25T04:51:47;96995.16;;;5.45;100.00
23677;BME280;31493;49.058;12.190;2024-01-25T04:54:14;96994.94;;;5.50;100.00
23677;BME280;31493;49.058;12.190;2024-01-25T04:56:41;96991.22;;;5.59;100.00
23677;BME280;31493;49.058;12.190;2024-01-25T04:59:10;97000.28;;;5.45;100.00
23677;BME280;31493;49.058;12.190;2024-01-25T05:01:37;97000.50;;;5.39;100.00
23677;BME280;31493;49.058;12.190;2024-01-25T05:04:04;96991.59;;;5.48;100.00
23677;BME280;31493;49.058;12.190;2024-01-25T05:06:31;97001.34;;;5.40;100.00
23677;BME280;31493;49.058;12.190;2024-01-25T05:08:58;97015.09;;;5.39;100.00
23677;BME280;31493;49.058;12.190;2024-01-25T05:11:25;97011.25;;;5.27;100.00
23677;BME280;31493;49.058;12.190;2024-01-25T05:13:52;97016.31;;;5.29;100.00
23677;BME280;31493;49.058;12.190;2024-01-25T05:16:21;97016.63;;;5.19;100.00
23677;BME280;31493;49.058;12.190;2024-01-25T05:18:48;97013.06;;;5.24;100.00
23677;BME280;31493;49.058;12.190;2024-01-25T05:21:14;97015.44;;;5.30;100.00
23677;BME280;31493;49.058;12.190;2024-01-25T05:23:41;97008.47;;;5.32;100.00
23677;BME280;31493;49.058;12.190;2024-01-25T05:26:08;97014.97;;;5.18;100.00
23677;BME280;31493;49.058;12.190;2024-01-25T05:28:35;97007.47;;;5.12;100.00
23677;BME280;31493;49.058;12.190;2024-01-25T05:31:02;97018.56;;;5.14;100.00
23677;BME280;31493;49.058;12.190;2024-01-25T05:33:30;97014.03;;;5.21;100.00
23677;BME280;31493;49.058;12.190;2024-01-25T05:35:57;97008.69;;;5.02;100.00
23677;BME280;31493;49.058;12.190;2024-01-25T05:38:24;97025.38;;;5.15;100.00
23677;BME280;31493;49.058;12.190;2024-01-25T05:40:51;97026.06;;;5.21;100.00
23677;BME280;31493;49.058;12.190;2024-01-25T05:43:19;97028.84;;;5.14;100.00
23677;BME280;31493;49.058;12.190;2024-01-25T05:45:46;97019.19;;;5.21;100.00
23677;BME280;31493;49.058;12.190;2024-01-25T05:48:13;97022.94;;;5.11;100.00
23677;BME280;31493;49.058;12.190;2024-01-25T05:50:41;97025.66;;;5.08;100.00
23677;BME280;31493;49.058;12.190;2024-01-25T05:53:08;97025.31;;;5.17;100.00
23677;BME280;31493;49.058;12.190;2024-01-25T05:55:35;97049.50;;;5.11;100.00
23677;BME280;31493;49.058;12.190;2024-01-25T05:58:03;97045.25;;;5.10;100.00
23677;BME280;31493;49.058;12.190;2024-01-25T06:00:30;97043.59;;;5.09;100.00
23677;BME280;31493;49.058;12.190;2024-01-25T06:02:57;97051.34;;;5.08;100.00
23677;BME280;31493;49.058;12.190;2024-01-25T06:05:24;97054.69;;;5.10;100.00
23677;BME280;31493;49.058;12.190;2024-01-25T06:07:52;97059.69;;;4.88;100.00
23677;BME280;31493;49.058;12.190;2024-01-25T06:10:19;97045.22;;;4.85;100.00
23677;BME280;31493;49.058;12.190;2024-01-25T06:12:46;97048.84;;;4.80;100.00
23677;BME280;31493;49.058;12.190;2024-01-25T06:15:14;97063.41;;;4.79;100.00
23677;BME280;31493;49.058;12.190;2024-01-25T06:17:41;97056.16;;;4.92;100.00
23677;BME280;31493;49.058;12.190;2024-01-25T06:20:09;97042.75;;;4.82;100.00
23677;BME280;31493;49.058;12.190;2024-01-25T06:22:36;97056.53;;;4.80;100.00
23677;BME280;31493;49.058;12.190;2024-01-25T06:25:05;97049.66;;;4.80;100.00
23677;BME280;31493;49.058;12.190;2024-01-25T06:27:33;97040.22;;;4.81;100.00
23677;BME280;31493;49.058;12.190;2024-01-25T06:30:00;97034.03;;;4.61;100.00
23677;BME280;31493;49.058;12.190;2024-01-25T06:32:28;97044.44;;;4.57;100.00
23677;BME280;31493;49.058;12.190;2024-01-25T06:34:55;97053.03;;;4.56;100.00
23677;BME280;31493;49.058;12.190;2024-01-25T06:37:22;97055.16;;;4.70;100.00
23677;BME280;31493;49.058;12.190;2024-01-25T06:39:49;97077.16;;;4.78;100.00
23677;BME280;31493;49.058;12.190;2024-01-25T06:42:17;97075.78;;;4.95;100.00
23677;BME280;31493;49.058;12.190;2024-01-25T06:44:44;97084.47;;;4.90;100.00
23677;BME280;31493;49.058;12.190;2024-01-25T06:47:11;97079.88;;;4.74;100.00
23677;BME280;31493;49.058;12.190;2024-01-25T06:49:38;97085.06;;;4.72;100.00
23677;BME280;31493;49.058;12.190;2024-01-25T06:52:05;97074.53;;;4.80;100.00
23677;BME280;31493;49.058;12.190;2024-01-25T06:54:32;97088.72;;;4.65;100.00
23677;BME280;31493;49.058;12.190;2024-01-25T06:56:59;97094.44;;;4.73;100.00
23677;BME280;31493;49.058;12.190;2024-01-25T06:59:28;97080.13;;;4.66;100.00
23677;BME280;31493;49.058;12.190;2024-01-25T07:01:55;97091.78;;;4.50;100.00
23677;BME280;31493;49.058;12.190;2024-01-25T07:04:22;97088.91;;;4.59;100.00
23677;BME280;31493;49.058;12.190;2024-01-25T07:06:49;97088.91;;;4.59;100.00
23677;BME280;31493;49.058;12.190;2024-01-25T07:09:16;97100.22;;;4.53;100.00
23677;BME280;31493;49.058;12.190;2024-01-25T07:11:43;97096.16;;;4.46;100.00
23677;BME280;31493;49.058;12.190;2024-01-25T07:14:10;97108.38;;;4.66;100.00
23677;BME280;31493;49.058;12.190;2024-01-25T07:16:39;97114.81;;;4.51;100.00
23677;BME280;31493;49.058;12.190;2024-01-25T07:19:06;97114.38;;;4.66;100.00
23677;BME280;31493;49.058;12.190;2024-01-25T07:21:33;97118.84;;;4.60;100.00
23677;BME280;31493;49.058;12.190;2024-01-25T07:24:02;97117.91;;;4.62;100.00
23677;BME280;31493;49.058;12.190;2024-01-25T07:26:30;97129.41;;;4.51;100.00
23677;BME280;31493;49.058;12.190;2024-01-25T07:28:57;97122.13;;;4.65;100.00
23677;BME280;31493;49.058;12.190;2024-01-25T07:31:25;97124.81;;;4.87;100.00
23677;BME280;31493;49.058;12.190;2024-01-25T07:33:54;97129.78;;;4.66;100.00
23677;BME280;31493;49.058;12.190;2024-01-25T07:36:21;97127.28;;;4.63;100.00
23677;BME280;31493;49.058;12.190;2024-01-25T07:38:48;97149.00;;;4.81;100.00
23677;BME280;31493;49.058;12.190;2024-01-25T07:41:15;97143.34;;;4.70;100.00
23677;BME280;31493;49.058;12.190;2024-01-25T07:43:42;97144.03;;;4.75;100.00
23677;BME280;31493;49.058;12.190;2024-01-25T07:46:10;97148.63;;;4.93;100.00
23677;BME280;31493;49.058;12.190;2024-01-25T07:48:40;97141.16;;;4.86;100.00
23677;BME280;31493;49.058;12.190;2024-01-25T07:51:12;97161.59;;;4.89;100.00
23677;BME280;31493;49.058;12.190;2024-01-25T07:53:39;97158.84;;;4.95;100.00
23677;BME280;31493;49.058;12.190;2024-01-25T07:56:06;97167.38;;;4.97;100.00
23677;BME280;31493;49.058;12.190;2024-01-25T07:58:35;97164.88;;;4.96;100.00
23677;BME280;31493;49.058;12.190;2024-01-25T08:01:03;97175.72;;;5.04;100.00
23677;BME280;31493;49.058;12.190;2024-01-25T08:03:30;97164.06;;;4.93;100.00
23677;BME280;31493;49.058;12.190;2024-01-25T08:05:57;97169.91;;;4.99;100.00
23677;BME280;31493;49.058;12.190;2024-01-25T08:08:26;97178.72;;;4.90;100.00
23677;BME280;31493;49.058;12.190;2024-01-25T08:10:53;97190.75;;;4.88;100.00
23677;BME280;31493;49.058;12.190;2024-01-25T08:13:20;97185.31;;;4.99;100.00
23677;BME280;31493;49.058;12.190;2024-01-25T08:15:47;97198.22;;;4.97;100.00
23677;BME280;31493;49.058;12.190;2024-01-25T08:18:14;97217.38;;;5.15;100.00
23677;BME280;31493;49.058;12.190;2024-01-25T08:20:41;97222.66;;;5.10;100.00
23677;BME280;31493;49.058;12.190;2024-01-25T08:23:08;97217.75;;;5.03;100.00
23677;BME280;31493;49.058;12.190;2024-01-25T08:25:36;97227.84;;;5.35;100.00
23677;BME280;31493;49.058;12.190;2024-01-25T08:28:04;97225.31;;;5.07;100.00
23677;BME280;31493;49.058;12.190;2024-01-25T08:30:31;97233.28;;;5.26;100.00
23677;BME280;31493;49.058;12.190;2024-01-25T08:32:58;97211.84;;;5.26;100.00
23677;BME280;31493;49.058;12.190;2024-01-25T08:35:25;97217.66;;;5.06;100.00
23677;BME280;31493;49.058;12.190;2024-01-25T08:37:52;97216.88;;;5.04;100.00
23677;BME280;31493;49.058;12.190;2024-01-25T08:40:19;97222.13;;;5.26;100.00
23677;BME280;31493;49.058;12.190;2024-01-25T08:42:47;97222.53;;;5.13;100.00
23677;BME280;31493;49.058;12.190;2024-01-25T08:45:14;97219.28;;;5.08;100.00
23677;BME280;31493;49.058;12.190;2024-01-25T08:47:41;97210.88;;;5.30;100.00
23677;BME280;31493;49.058;12.190;2024-01-25T08:50:11;97207.88;;;5.17;100.00
23677;BME280;31493;49.058;12.190;2024-01-25T08:52:38;97207.91;;;5.15;100.00
23677;BME280;31493;49.058;12.190;2024-01-25T08:55:07;97210.63;;;5.11;100.00
23677;BME280;31493;49.058;12.190;2024-01-25T08:57:35;97205.63;;;5.06;100.00
23677;BME280;31493;49.058;12.190;2024-01-25T09:00:04;97217.50;;;5.10;100.00
23677;BME280;31493;49.058;12.190;2024-01-25T09:02:36;97227.19;;;5.02;100.00
23677;BME280;31493;49.058;12.190;2024-01-25T09:05:04;97217.19;;;5.19;100.00
23677;BME280;31493;49.058;12.190;2024-01-25T09:07:31;97222.81;;;5.32;100.00
23677;BME280;31493;49.058;12.190;2024-01-25T09:09:58;97226.41;;;5.27;100.00
23677;BME280;31493;49.058;12.190;2024-01-25T09:12:25;97229.03;;;5.25;100.00
23677;BME280;31493;49.058;12.190;2024-01-25T09:14:52;97238.53;;;5.23;100.00
23677;BME280;31493;49.058;12.190;2024-01-25T09:17:20;97248.16;;;5.43;100.00
23677;BME280;31493;49.058;12.190;2024-01-25T09:19:48;97234.50;;;5.41;100.00
23677;BME280;31493;49.058;12.190;2024-01-25T09:22:15;97247.25;;;5.45;100.00
23677;BME280;31493;49.058;12.190;2024-01-25T09:24:43;97243.38;;;5.32;100.00
23677;BME280;31493;49.058;12.190;2024-01-25T09:27:10;97245.31;;;5.52;100.00
23677;BME280;31493;49.058;12.190;2024-01-25T09:29:37;97247.66;;;5.58;100.00
23677;BME280;31493;49.058;12.190;2024-01-25T09:32:05;97250.22;;;5.32;100.00
23677;BME280;31493;49.058;12.190;2024-01-25T09:34:34;97260.44;;;5.35;100.00
23677;BME280;31493;49.058;12.190;2024-01-25T09:37:01;97261.34;;;5.34;100.00
23677;BME280;31493;49.058;12.190;2024-01-25T09:39:28;97257.34;;;5.50;100.00
23677;BME280;31493;49.058;12.190;2024-01-25T09:41:55;97245.47;;;5.19;100.00
23677;BME280;31493;49.058;12.190;2024-01-25T09:44:22;97259.41;;;5.40;100.00
23677;BME280;31493;49.058;12.190;2024-01-25T09:46:51;97271.28;;;5.44;100.00
23677;BME280;31493;49.058;12.190;2024-01-25T09:49:18;97268.63;;;5.19;100.00
23677;BME280;31493;49.058;12.190;2024-01-25T09:51:47;97274.28;;;5.31;100.00
23677;BME280;31493;49.058;12.190;2024-01-25T09:54:16;97263.75;;;5.38;100.00
23677;BME280;31493;49.058;12.190;2024-01-25T09:56:43;97276.16;;;5.52;100.00
23677;BME280;31493;49.058;12.190;2024-01-25T09:59:10;97281.78;;;5.38;100.00
23677;BME280;31493;49.058;12.190;2024-01-25T10:01:37;97273.88;;;5.43;100.00
23677;BME280;31493;49.058;12.190;2024-01-25T10:04:06;97277.28;;;5.43;100.00
23677;BME280;31493;49.058;12.190;2024-01-25T10:06:33;97271.81;;;5.54;100.00
23677;BME280;31493;49.058;12.190;2024-01-25T10:09:01;97262.34;;;5.55;100.00
23677;BME280;31493;49.058;12.190;2024-01-25T10:11:30;97274.56;;;5.74;100.00
23677;BME280;31493;49.058;12.190;2024-01-25T10:14:01;97274.75;;;5.68;100.00
23677;BME280;31493;49.058;12.190;2024-01-25T10:16:29;97280.81;;;5.67;100.00
23677;BME280;31493;49.058;12.190;2024-01-25T10:18:56;97277.44;;;5.65;100.00
23677;BME280;31493;49.058;12.190;2024-01-25T10:21:23;97285.44;;;5.56;100.00
23677;BME280;31493;49.058;12.190;2024-01-25T10:23:50;97287.63;;;5.93;100.00
23677;BME280;31493;49.058;12.190;2024-01-25T10:26:21;97272.94;;;5.72;100.00
23677;BME280;31493;49.058;12.190;2024-01-25T10:28:52;97265.22;;;5.97;100.00
23677;BME280;31493;49.058;12.190;2024-01-25T10:31:22;97266.16;;;5.69;100.00
23677;BME280;31493;49.058;12.190;2024-01-25T10:33:51;97263.84;;;5.87;100.00
23677;BME280;31493;49.058;12.190;2024-01-25T10:36:20;97251.88;;;5.86;100.00
23677;BME280;31493;49.058;12.190;2024-01-25T10:38:48;97262.28;;;5.83;100.00
23677;BME280;31493;49.058;12.190;2024-01-25T10:41:15;97258.25;;;5.76;100.00
23677;BME280;31493;49.058;12.190;2024-01-25T10:43:44;97262.59;;;5.98;100.00
23677;BME280;31493;49.058;12.190;2024-01-25T10:46:12;97261.88;;;5.70;100.00
23677;BME280;31493;49.058;12.190;2024-01-25T10:48:39;97261.06;;;5.93;100.00
23677;BME280;31493;49.058;12.190;2024-01-25T10:51:06;97262.31;;;5.81;100.00
23677;BME280;31493;49.058;12.190;2024-01-25T10:53:35;97259.50;;;5.89;100.00
23677;BME280;31493;49.058;12.190;2024-01-25T10:56:04;97257.06;;;5.84;100.00
23677;BME280;31493;49.058;12.190;2024-01-25T10:58:32;97260.59;;;6.07;99.97
23677;BME280;31493;49.058;12.190;2024-01-25T11:02:38;97252.09;;;6.28;99.62
23677;BME280;31493;49.058;12.190;2024-01-25T11:05:08;97254.63;;;6.30;98.64
23677;BME280;31493;49.058;12.190;2024-01-25T11:07:43;97247.16;;;6.22;99.73
23677;BME280;31493;49.058;12.190;2024-01-25T11:10:16;97250.72;;;6.19;97.39
23677;BME280;31493;49.058;12.190;2024-01-25T11:12:50;97261.03;;;6.18;99.62
23677;BME280;31493;49.058;12.190;2024-01-25T11:15:21;97259.75;;;6.06;98.50
23677;BME280;31493;49.058;12.190;2024-01-25T11:17:54;97252.28;;;5.98;98.71
23677;BME280;31493;49.058;12.190;2024-01-25T11:20:25;97255.50;;;6.28;96.86
23677;BME280;31493;49.058;12.190;2024-01-25T11:22:56;97251.13;;;6.07;96.81
23677;BME280;31493;49.058;12.190;2024-01-25T11:25:26;97241.38;;;5.92;96.67
23677;BME280;31493;49.058;12.190;2024-01-25T11:27:54;97258.59;;;6.15;96.70
23677;BME280;31493;49.058;12.190;2024-01-25T11:30:21;97240.38;;;5.96;94.64
23677;BME280;31493;49.058;12.190;2024-01-25T11:32:49;97241.16;;;5.98;96.31
23677;BME280;31493;49.058;12.190;2024-01-25T11:35:17;97250.72;;;5.94;97.01
23677;BME280;31493;49.058;12.190;2024-01-25T11:37:45;97250.66;;;6.21;94.41
23677;BME280;31493;49.058;12.190;2024-01-25T11:40:13;97245.03;;;6.10;93.18
23677;BME280;31493;49.058;12.190;2024-01-25T11:42:43;97252.25;;;6.23;93.72
23677;BME280;31493;49.058;12.190;2024-01-25T11:45:11;97244.31;;;6.53;92.87
23677;BME280;31493;49.058;12.190;2024-01-25T11:47:41;97248.78;;;6.48;94.04
23677;BME280;31493;49.058;12.190;2024-01-25T11:50:10;97249.53;;;6.28;92.44
23677;BME280;31493;49.058;12.190;2024-01-25T11:52:38;97248.69;;;6.27;91.59
23677;BME280;31493;49.058;12.190;2024-01-25T11:55:07;97242.38;;;6.11;89.90
23677;BME280;31493;49.058;12.190;2024-01-25T11:57:36;97237.25;;;6.35;90.91
23677;BME280;31493;49.058;12.190;2024-01-25T12:00:05;97245.44;;;6.22;89.10
23677;BME280;31493;49.058;12.190;2024-01-25T12:02:35;97242.25;;;6.16;89.58
23677;BME280;31493;49.058;12.190;2024-01-25T12:05:03;97242.47;;;5.85;88.37
23677;BME280;31493;49.058;12.190;2024-01-25T12:07:31;97244.63;;;5.97;88.54
23677;BME280;31493;49.058;12.190;2024-01-25T12:10:02;97261.25;;;6.12;89.19
23677;BME280;31493;49.058;12.190;2024-01-25T12:12:29;97258.97;;;6.04;90.08
23677;BME280;31493;49.058;12.190;2024-01-25T12:14:59;97238.25;;;6.07;88.79
23677;BME280;31493;49.058;12.190;2024-01-25T12:17:27;97235.91;;;6.01;89.51
23677;BME280;31493;49.058;12.190;2024-01-25T12:19:55;97228.50;;;5.92;87.81
23677;BME280;31493;49.058;12.190;2024-01-25T12:22:23;97233.22;;;6.04;86.01
23677;BME280;31493;49.058;12.190;2024-01-25T12:24:53;97231.47;;;6.05;85.53
23677;BME280;31493;49.058;12.190;2024-01-25T12:27:21;97225.00;;;5.94;87.27
23677;BME280;31493;49.058;12.190;2024-01-25T12:29:49;97225.69;;;5.98;87.81
23677;BME280;31493;49.058;12.190;2024-01-25T12:32:16;97218.84;;;6.22;87.00
23677;BME280;31493;49.058;12.190;2024-01-25T12:34:52;97217.19;;;5.96;88.25
23677;BME280;31493;49.058;12.190;2024-01-25T12:37:19;97219.91;;;6.16;88.71
23677;BME280;31493;49.058;12.190;2024-01-25T12:39:47;97235.84;;;6.03;86.62
23677;BME280;31493;49.058;12.190;2024-01-25T12:42:14;97221.91;;;6.08;87.61
23677;BME280;31493;49.058;12.190;2024-01-25T12:44:42;97223.22;;;6.20;86.21
23677;BME280;31493;49.058;12.190;2024-01-25T12:47:10;97224.31;;;6.36;85.85
23677;BME280;31493;49.058;12.190;2024-01-25T12:49:39;97224.44;;;6.33;87.73
23677;BME280;31493;49.058;12.190;2024-01-25T12:52:07;97222.03;;;6.28;85.17
23677;BME280;31493;49.058;12.190;2024-01-25T12:54:34;97220.66;;;6.43;85.06
23677;BME280;31493;49.058;12.190;2024-01-25T12:57:01;97217.00;;;6.25;86.54